Portada
METAR-TAF:

METAR-TAF

Aeroports :

Aeroport de Tànger Ibn Battuta

Tànger, Marroc

latitud: 35-44N, longitud: 005-54W, altitud: 19 m

Observació

L'informe es va fer fa 23 minuts, a les 13:00 UTC
Vent 9 kt del Nord-Est
Temperatura 38°C
Humitat 24%
Pressió 1013 hPa
Visibilitat 10 km o més
sense núvols per sota de 1500 mi sense presència de cumulonimbus.

METAR: GMTT 071300Z 05009KT CAVOK 38/14 Q1013 NOSIG

Hora: 14:23 (13:23 UTC)

Pronòstic

L'informe es va fer fa 2 hores i 23 minuts, a les 11:00 UTC
Pronòstic vàlid del 07 a les 12 UTC al 08 a les 18 UTC
Vent 11 kt del Nord-Est
Visibilitat 10 km o més
sense núvols per sota de 1500 mi sense presència de cumulonimbus.
Probabilitat 30% :
Temporalment
l' 07 a les 12 UTC al 07 a les 22 UTC
Vent 16 kt del Est amb ràfegues de 27 kt

TAF: GMTT 071100Z 0712/0818 05011KT CAVOK PROB30 TEMPO 0712/0722 08016G27KT

Observacions i pronòstics meteorològics de més de 4000 aeroports (METAR i TAF).

Les estacions disponibles són els punts grocs i vermells al mapa.

Posi el ratolí al punt desitjat per veure el nom de l'estació.

Feu clic per veure les observacions i els pronòstics meteorològics.

Per canviar el mapa: feu clic els botons verds amb una creu de color negre per apropar; al botó verd amb un guió per allunyar la imatge; o en les fletxes verdes per a mapes adjacents.


METAR-TAF: